Linda — OJML — position and weather

sailwx.info

Track history (hours):
 
Tides and Currents Weather Stations Pressure Air Temp Water Temp Dewpoint Dewpoint Depression Visibility Wind Speed Wind Dir Waves Ship Positions

Linda

Last reported at 2015-Jul-07 12:28 UTC. Time now 2015-Jul-07 17:40 UTC.
Position N 60°03' E 026°06'.

Length 141 m; draft 6.6 m.

Type: Ship (hazmat cat A). MMSI: 230984000.

Date/timePositionNaut miles runAvg speedWind from/ knotsBaromVisibWave heightAir tempDewpointWater temp
2015-Jul-07 12:28N 60°03' E 026°06'1314.1
2015-Jul-07 11:33N 60°13' E 026°23'1514.7
2015-Jul-07 10:33N 60°23' E 026°45'5 5.3
2015-Jul-07 09:32N 60°25' E 026°55'0 0.0
2015-Jul-07 08:32N 60°25' E 026°55'0 0.0
2015-Jul-07 07:32N 60°25' E 026°55'0 0.0
2015-Jul-07 06:32N 60°25' E 026°55'0 0.0
2015-Jul-07 05:32N 60°25' E 026°55'0 0.0
2015-Jul-07 04:32N 60°25' E 026°55'7 6.9
2015-Jul-07 03:33N 60°21' E 027°04'7711.0
2015-Jul-06 20:33N 60°01' E 029°34'4 4.2
2015-Jul-06 19:32N 60°00' E 029°43'0 0.0
2015-Jul-06 18:32N 60°00' E 029°43'0 0.0
2015-Jul-06 17:32N 60°00' E 029°43'0 0.0
2015-Jul-06 12:32N 60°00' E 029°43'0 0.0
2015-Jul-06 11:29N 60°00' E 029°43'0 0.0
2015-Jul-06 10:32N 60°00' E 029°43'0 0.0
2015-Jul-06 09:26N 60°00' E 029°43'0 0.0
2015-Jul-06 08:23N 60°00' E 029°43'0 0.0
2015-Jul-06 07:29N 60°00' E 029°43'0 0.0
2015-Jul-06 06:32N 60°00' E 029°43'0 0.0
2015-Jul-06 05:33N 60°00' E 029°43'4 4.5
2015-Jul-06 04:33N 60°01' E 029°34'8710.2
2015-Jul-05 20:03N 59°59' E 026°40'4914.1
2015-Jul-05 16:33N 59°47' E 025°05'1414.2
2015-Jul-05 15:33N 59°44' E 024°37'1414.3
2015-Jul-05 14:34N 59°41' E 024°10'1614.5
2015-Jul-05 13:27N 59°35' E 023°40'333 7.4
2015-Jul-03 16:33N 55°50' E 016°01'1615.6
2015-Jul-03 15:33N 55°42' E 015°37'1615.8
2015-Jul-03 14:32N 55°34' E 015°12'1515.7
2015-Jul-03 13:33N 55°26' E 014°49'1515.4
2015-Jul-03 12:33N 55°16' E 014°29'1615.7
2015-Jul-03 11:33N 55°04' E 014°11'1515.3
2015-Jul-03 10:34N 54°57' E 013°47'1515.2
2015-Jul-03 09:33N 54°51' E 013°23'1515.2
2015-Jul-03 08:33N 54°46' E 012°58'1515.0
2015-Jul-03 07:33N 54°38' E 012°36'1514.8
2015-Jul-03 06:33N 54°29' E 012°16'1313.5
2015-Jul-03 05:34N 54°25' E 011°54'1514.8
2015-Jul-03 04:34N 54°30' E 011°30'1514.8
2015-Jul-03 03:34N 54°36' E 011°07'1313.4
2015-Jul-03 02:33N 54°46' E 010°52'1413.6
2015-Jul-03 01:33N 54°59' E 011°00'1414.0
2015-Jul-03 00:33N 55°13' E 011°06'1514.3
2015-Jul-02 23:31N 55°26' E 010°57'1414.2
2015-Jul-02 22:32N 55°39' E 010°46'2610.7
2015-Jul-02 20:08N 56°04' E 010°35'915.8
2015-Jul-02 19:33N 56°08' E 010°21'4 3.0
2015-Jul-02 18:19N 56°09' E 010°14'0 0.0
2015-Jul-02 17:31N 56°09' E 010°14'0 0.0
2015-Jul-02 16:19N 56°09' E 010°14'0 0.0
2015-Jul-02 13:32N 56°09' E 010°14'6 6.2
2015-Jul-02 12:33N 56°07' E 010°24'2016.1
2015-Jul-02 11:19N 56°05' E 010°60'2916.2
2015-Jul-02 09:32N 56°27' E 011°33'1616.5
2015-Jul-02 08:33N 56°41' E 011°47'1615.7
2015-Jul-02 07:33N 56°57' E 011°44'1716.9
2015-Jul-02 06:33N 57°13' E 011°33'1716.7
2015-Jul-02 05:34N 57°28' E 011°22'1616.4
2015-Jul-02 04:33N 57°39' E 010°59'1615.8
2015-Jul-02 03:33N 57°47' E 010°34'1716.9
2015-Jul-02 02:34N 57°41' E 010°04'1716.5
2015-Jul-02 01:33N 57°33' E 009°37'1816.5
2015-Jul-02 00:28N 57°24' E 009°09'15616.8
2015-Jul-01 15:10N 55°17' E 006°23'1117.1
2015-Jul-01 14:33N 55°08' E 006°13'4116.8
2015-Jul-01 12:06N 54°33' E 005°36'916.6
2015-Jul-01 11:33N 54°26' E 005°28'1716.7
2015-Jul-01 10:33N 54°11' E 005°13'1716.9
2015-Jul-01 09:33N 53°56' E 005°02'1717.1
2015-Jul-01 08:33N 53°40' E 004°52'1717.3
2015-Jul-01 07:33N 53°24' E 004°41'1817.6
2015-Jul-01 06:33N 53°08' E 004°29'1817.7
2015-Jul-01 05:33N 52°52' E 004°15'1817.9
2015-Jul-01 04:33N 52°37' E 003°60'1717.3
2015-Jul-01 03:33N 52°20' E 003°52'1817.8
2015-Jul-01 02:33N 52°02' E 003°54'1413.8
2015-Jul-01 01:34N 51°56' E 004°14'8 7.7
2015-Jul-01 00:33N 51°53' E 004°25'0 0.0
2015-Jun-30 23:33N 51°53' E 004°25'0 0.0
2015-Jun-30 22:33N 51°53' E 004°25'0 0.0
2015-Jun-30 21:33N 51°53' E 004°25'0 0.0
2015-Jun-30 20:33N 51°53' E 004°25'0 0.0
2015-Jun-30 19:33N 51°53' E 004°25'0 0.0
2015-Jun-30 18:33N 51°53' E 004°25'0 0.0
2015-Jun-30 17:33N 51°53' E 004°25'0 0.0
2015-Jun-30 16:33N 51°53' E 004°25'0 0.0
2015-Jun-30 15:33N 51°53' E 004°25'0 0.0
2015-Jun-30 14:33N 51°53' E 004°25'0 0.0
2015-Jun-30 13:33N 51°53' E 004°25'0 0.0
2015-Jun-30 12:34N 51°53' E 004°25'0 0.0
2015-Jun-30 11:33N 51°53' E 004°25'0 0.0
2015-Jun-30 10:34N 51°53' E 004°25'0 0.0
2015-Jun-30 09:33N 51°53' E 004°25'0 0.0
2015-Jun-30 08:33N 51°53' E 004°25'0 0.0
2015-Jun-30 07:33N 51°53' E 004°25'0 0.0
2015-Jun-30 06:34N 51°53' E 004°25'0 0.0
2015-Jun-30 05:34N 51°53' E 004°25'3 3.4
2015-Jun-30 04:34N 51°54' E 004°20'1111.5
2015-Jun-30 03:33N 51°59' E 004°03'1615.6
2015-Jun-30 02:34N 52°04' E 003°39'1717.4
2015-Jun-30 01:34N 52°14' E 003°16'1717.0
2015-Jun-30 00:33N 52°26' E 002°56'1716.9
2015-Jun-29 23:33N 52°36' E 002°34'1716.6
2015-Jun-29 22:33N 52°46' E 002°12'1716.7
2015-Jun-29 21:33N 52°57' E 001°51'1717.0
2015-Jun-29 20:33N 53°08' E 001°30'4219.2
2015-Jun-29 18:22N 53°41' E 000°46'1012.1
2015-Jun-29 17:33N 53°49' E 000°35'1818.0
2015-Jun-29 16:34N 54°02' E 000°15'1818.3
2015-Jun-29 15:33N 54°15' W 000°06'1818.4
2015-Jun-29 14:33N 54°29' W 000°28'1918.9
2015-Jun-29 13:33N 54°38' W 000°56'6 0.6
2015-Jun-29 03:32N 54°41' W 001°05'1313.1
2015-Jun-29 02:33N 54°47' W 000°46'1413.5
2015-Jun-29 01:33N 54°53' W 000°24'1413.0
2015-Jun-29 00:29N 54°59' W 000°03'39514.1
2015-Jun-27 20:33N 57°47' E 010°43'1514.8
2015-Jun-27 19:33N 57°39' E 011°05'1616.0
2015-Jun-27 18:33N 57°28' E 011°26'1615.6
2015-Jun-27 17:33N 57°13' E 011°36'1615.5
2015-Jun-27 16:32N 56°58' E 011°46'1414.5
2015-Jun-27 15:33N 56°44' E 011°52'1615.8
2015-Jun-27 14:33N 56°31' E 011°38'1716.2
2015-Jun-27 13:29N 56°16' E 011°22'  
Track history (hours):
 
Tides and Currents Weather Stations Pressure Air Temp Water Temp Dewpoint Dewpoint Depression Visibility Wind Speed Wind Dir Waves Ship Positions

Linda

Last reported at 2015-Jul-07 12:28 UTC. Time now 2015-Jul-07 17:40 UTC.
Position N 60°03' E 026°06'.

Length 141 m; draft 6.6 m.

Type: Ship (hazmat cat A). MMSI: 230984000.

Date/timePositionNaut miles runAvg speedWind from/ knotsBaromVisibWave heightAir tempDewpointWater temp
2015-Jul-07 12:28N 60°03' E 026°06'1314.1
2015-Jul-07 11:33N 60°13' E 026°23'1514.7
2015-Jul-07 10:33N 60°23' E 026°45'5 5.3
2015-Jul-07 09:32N 60°25' E 026°55'0 0.0
2015-Jul-07 08:32N 60°25' E 026°55'0 0.0
2015-Jul-07 07:32N 60°25' E 026°55'0 0.0
2015-Jul-07 06:32N 60°25' E 026°55'0 0.0
2015-Jul-07 05:32N 60°25' E 026°55'0 0.0
2015-Jul-07 04:32N 60°25' E 026°55'7 6.9
2015-Jul-07 03:33N 60°21' E 027°04'7711.0
2015-Jul-06 20:33N 60°01' E 029°34'4 4.2
2015-Jul-06 19:32N 60°00' E 029°43'0 0.0
2015-Jul-06 18:32N 60°00' E 029°43'0 0.0
2015-Jul-06 17:32N 60°00' E 029°43'0 0.0
2015-Jul-06 12:32N 60°00' E 029°43'0 0.0
2015-Jul-06 11:29N 60°00' E 029°43'0 0.0
2015-Jul-06 10:32N 60°00' E 029°43'0 0.0
2015-Jul-06 09:26N 60°00' E 029°43'0 0.0
2015-Jul-06 08:23N 60°00' E 029°43'0 0.0
2015-Jul-06 07:29N 60°00' E 029°43'0 0.0
2015-Jul-06 06:32N 60°00' E 029°43'0 0.0
2015-Jul-06 05:33N 60°00' E 029°43'4 4.5
2015-Jul-06 04:33N 60°01' E 029°34'8710.2
2015-Jul-05 20:03N 59°59' E 026°40'4914.1
2015-Jul-05 16:33N 59°47' E 025°05'1414.2
2015-Jul-05 15:33N 59°44' E 024°37'1414.3
2015-Jul-05 14:34N 59°41' E 024°10'1614.5
2015-Jul-05 13:27N 59°35' E 023°40'333 7.4
2015-Jul-03 16:33N 55°50' E 016°01'1615.6
2015-Jul-03 15:33N 55°42' E 015°37'1615.8
2015-Jul-03 14:32N 55°34' E 015°12'1515.7
2015-Jul-03 13:33N 55°26' E 014°49'1515.4
2015-Jul-03 12:33N 55°16' E 014°29'1615.7
2015-Jul-03 11:33N 55°04' E 014°11'1515.3
2015-Jul-03 10:34N 54°57' E 013°47'1515.2
2015-Jul-03 09:33N 54°51' E 013°23'1515.2
2015-Jul-03 08:33N 54°46' E 012°58'1515.0
2015-Jul-03 07:33N 54°38' E 012°36'1514.8
2015-Jul-03 06:33N 54°29' E 012°16'1313.5
2015-Jul-03 05:34N 54°25' E 011°54'1514.8
2015-Jul-03 04:34N 54°30' E 011°30'1514.8
2015-Jul-03 03:34N 54°36' E 011°07'1313.4
2015-Jul-03 02:33N 54°46' E 010°52'1413.6
2015-Jul-03 01:33N 54°59' E 011°00'1414.0
2015-Jul-03 00:33N 55°13' E 011°06'1514.3
2015-Jul-02 23:31N 55°26' E 010°57'1414.2
2015-Jul-02 22:32N 55°39' E 010°46'2610.7
2015-Jul-02 20:08N 56°04' E 010°35'915.8
2015-Jul-02 19:33N 56°08' E 010°21'4 3.0
2015-Jul-02 18:19N 56°09' E 010°14'0 0.0
2015-Jul-02 17:31N 56°09' E 010°14'0 0.0
2015-Jul-02 16:19N 56°09' E 010°14'0 0.0
2015-Jul-02 13:32N 56°09' E 010°14'6 6.2
2015-Jul-02 12:33N 56°07' E 010°24'2016.1
2015-Jul-02 11:19N 56°05' E 010°60'2916.2
2015-Jul-02 09:32N 56°27' E 011°33'1616.5
2015-Jul-02 08:33N 56°41' E 011°47'1615.7
2015-Jul-02 07:33N 56°57' E 011°44'1716.9
2015-Jul-02 06:33N 57°13' E 011°33'1716.7
2015-Jul-02 05:34N 57°28' E 011°22'1616.4
2015-Jul-02 04:33N 57°39' E 010°59'1615.8
2015-Jul-02 03:33N 57°47' E 010°34'1716.9
2015-Jul-02 02:34N 57°41' E 010°04'1716.5
2015-Jul-02 01:33N 57°33' E 009°37'1816.5
2015-Jul-02 00:28N 57°24' E 009°09'15616.8
2015-Jul-01 15:10N 55°17' E 006°23'1117.1
2015-Jul-01 14:33N 55°08' E 006°13'4116.8
2015-Jul-01 12:06N 54°33' E 005°36'916.6
2015-Jul-01 11:33N 54°26' E 005°28'1716.7
2015-Jul-01 10:33N 54°11' E 005°13'1716.9
2015-Jul-01 09:33N 53°56' E 005°02'1717.1
2015-Jul-01 08:33N 53°40' E 004°52'1717.3
2015-Jul-01 07:33N 53°24' E 004°41'1817.6
2015-Jul-01 06:33N 53°08' E 004°29'1817.7
2015-Jul-01 05:33N 52°52' E 004°15'1817.9
2015-Jul-01 04:33N 52°37' E 003°60'1717.3
2015-Jul-01 03:33N 52°20' E 003°52'1817.8
2015-Jul-01 02:33N 52°02' E 003°54'1413.8
2015-Jul-01 01:34N 51°56' E 004°14'8 7.7
2015-Jul-01 00:33N 51°53' E 004°25'0 0.0
2015-Jun-30 23:33N 51°53' E 004°25'0 0.0
2015-Jun-30 22:33N 51°53' E 004°25'0 0.0
2015-Jun-30 21:33N 51°53' E 004°25'0 0.0
2015-Jun-30 20:33N 51°53' E 004°25'0 0.0
2015-Jun-30 19:33N 51°53' E 004°25'0 0.0
2015-Jun-30 18:33N 51°53' E 004°25'0 0.0
2015-Jun-30 17:33N 51°53' E 004°25'0 0.0
2015-Jun-30 16:33N 51°53' E 004°25'0 0.0
2015-Jun-30 15:33N 51°53' E 004°25'0 0.0
2015-Jun-30 14:33N 51°53' E 004°25'0 0.0
2015-Jun-30 13:33N 51°53' E 004°25'0 0.0
2015-Jun-30 12:34N 51°53' E 004°25'0 0.0
2015-Jun-30 11:33N 51°53' E 004°25'0 0.0
2015-Jun-30 10:34N 51°53' E 004°25'0 0.0
2015-Jun-30 09:33N 51°53' E 004°25'0 0.0
2015-Jun-30 08:33N 51°53' E 004°25'0 0.0
2015-Jun-30 07:33N 51°53' E 004°25'0 0.0
2015-Jun-30 06:34N 51°53' E 004°25'0 0.0
2015-Jun-30 05:34N 51°53' E 004°25'3 3.4
2015-Jun-30 04:34N 51°54' E 004°20'1111.5
2015-Jun-30 03:33N 51°59' E 004°03'1615.6
2015-Jun-30 02:34N 52°04' E 003°39'1717.4
2015-Jun-30 01:34N 52°14' E 003°16'1717.0
2015-Jun-30 00:33N 52°26' E 002°56'1716.9
2015-Jun-29 23:33N 52°36' E 002°34'1716.6
2015-Jun-29 22:33N 52°46' E 002°12'1716.7
2015-Jun-29 21:33N 52°57' E 001°51'1717.0
2015-Jun-29 20:33N 53°08' E 001°30'4219.2
2015-Jun-29 18:22N 53°41' E 000°46'1012.1
2015-Jun-29 17:33N 53°49' E 000°35'1818.0
2015-Jun-29 16:34N 54°02' E 000°15'1818.3
2015-Jun-29 15:33N 54°15' W 000°06'1818.4
2015-Jun-29 14:33N 54°29' W 000°28'1918.9
2015-Jun-29 13:33N 54°38' W 000°56'6 0.6
2015-Jun-29 03:32N 54°41' W 001°05'1313.1
2015-Jun-29 02:33N 54°47' W 000°46'1413.5
2015-Jun-29 01:33N 54°53' W 000°24'1413.0
2015-Jun-29 00:29N 54°59' W 000°03'39514.1
2015-Jun-27 20:33N 57°47' E 010°43'1514.8
2015-Jun-27 19:33N 57°39' E 011°05'1616.0
2015-Jun-27 18:33N 57°28' E 011°26'1615.6
2015-Jun-27 17:33N 57°13' E 011°36'1615.5
2015-Jun-27 16:32N 56°58' E 011°46'1414.5
2015-Jun-27 15:33N 56°44' E 011°52'1615.8
2015-Jun-27 14:33N 56°31' E 011°38'1716.2
2015-Jun-27 13:29N 56°16' E 011°22'  

Dump ship's entire track history